Terminal Aerodrome Forecast
Issued by NWS Memphis, TN

Home | Current Version | Previous Version | Text Only | Print | Product List | Glossary On
Versions: 1 2 3 4 5 6 7 8 9 10 11 12 13
000
FTUS44 KMEG 181100
TAFMKL
TAF
KMKL 181131Z 1812/1912 11005KT P6SM VCSH BKN060 BKN100
     FM190000 VRB03KT P6SM SCT060
     FM190700 00000KT 6SM BR SKC
      TEMPO 1909/1912 3SM BR=

USA.gov is the U.S. government's official web portal to all federal, state and local government web resources and services.